createdAt,value
2022-12-13T00:01:18.299Z,100821.91
2022-12-13T00:03:46.205Z,100824.66
2022-12-13T00:06:14.381Z,100822.94
2022-12-13T00:08:42.779Z,100814.94
2022-12-13T00:11:12.772Z,100814.06
2022-12-13T00:13:41.775Z,100818.56
2022-12-13T00:16:12.392Z,100819.47
2022-12-13T00:18:40.306Z,100806.09
2022-12-13T00:21:11.039Z,100818.66
2022-12-13T00:23:38.771Z,100819.53
2022-12-13T00:26:06.690Z,100816.91
2022-12-13T00:28:34.716Z,100816.91
2022-12-13T00:31:26.963Z,100815.19
2022-12-13T00:33:52.939Z,100817.91
2022-12-13T00:36:21.113Z,100814.38
2022-12-13T00:39:00.358Z,100809.91
2022-12-13T00:41:29.939Z,100812.66
2022-12-13T00:43:58.664Z,100818.03
2022-12-13T00:46:26.548Z,100810.09
2022-12-13T00:48:56.649Z,100803.00
2022-12-13T00:51:24.976Z,100810.16
2022-12-13T00:53:52.662Z,100813.78
2022-12-13T00:56:21.925Z,100811.16
2022-12-13T00:58:52.256Z,100808.53
2022-12-13T01:01:21.340Z,100807.69
2022-12-13T01:03:49.099Z,100804.13
2022-12-13T01:06:19.439Z,100806.91
2022-12-13T01:08:47.293Z,100806.03
2022-12-13T01:11:15.810Z,100801.59
2022-12-13T01:13:43.855Z,100801.66
2022-12-13T01:16:12.553Z,100799.03
2022-12-13T01:18:41.071Z,100803.50
2022-12-13T01:21:09.500Z,100808.00
2022-12-13T01:23:38.997Z,100808.94
2022-12-13T01:26:07.909Z,100811.69
2022-12-13T01:28:35.530Z,100812.63
2022-12-13T01:31:04.439Z,100810.88
2022-12-13T01:33:33.745Z,100812.72
2022-12-13T01:36:01.992Z,100810.97
2022-12-13T01:38:30.547Z,100823.53
2022-12-13T01:40:59.597Z,100814.59
2022-12-13T01:43:29.564Z,100824.44
2022-12-13T01:45:57.374Z,100817.38
2022-12-13T01:48:28.641Z,100818.28
2022-12-13T01:51:01.058Z,100819.22
2022-12-13T01:53:30.093Z,100826.38
2022-12-13T01:56:03.481Z,100819.28
2022-12-13T01:58:31.534Z,100820.25
2022-12-13T02:01:00.923Z,100815.81
2022-12-13T02:03:28.831Z,100820.31
2022-12-13T02:06:01.075Z,100818.59
2022-12-13T02:08:29.740Z,100815.06
2022-12-13T02:10:59.664Z,100823.16
2022-12-13T02:13:27.398Z,100825.84
2022-12-13T02:15:59.496Z,100825.03
2022-12-13T02:18:36.654Z,100826.03
2022-12-13T02:21:08.491Z,100828.78
2022-12-13T02:23:48.955Z,100820.78
2022-12-13T02:26:34.465Z,100818.16
2022-12-13T02:29:12.105Z,100816.44
2022-12-13T02:32:02.773Z,100814.72
2022-12-13T02:34:36.165Z,100812.97
2022-12-13T02:37:17.428Z,100806.72
2022-12-13T02:39:50.565Z,100813.06
2022-12-13T02:42:21.421Z,100816.63
2022-12-13T02:44:52.466Z,100819.31
2022-12-13T02:47:22.978Z,100822.88
2022-12-13T02:49:52.505Z,100813.06
2022-12-13T02:52:22.745Z,100809.50
2022-12-13T02:54:50.541Z,100809.47
2022-12-13T02:57:30.085Z,100793.41
2022-12-13T02:59:58.844Z,100796.97
2022-12-13T03:02:32.330Z,100801.41
2022-12-13T03:05:22.282Z,100798.72
2022-12-13T03:07:56.692Z,100801.41
2022-12-13T03:10:29.998Z,100799.59
2022-12-13T03:13:18.937Z,100799.59
2022-12-13T03:15:54.344Z,100804.97
2022-12-13T03:18:25.198Z,100802.28
2022-12-13T03:20:55.734Z,100799.59
2022-12-13T03:23:24.453Z,100796.91
2022-12-13T03:25:56.729Z,100797.84
2022-12-13T03:28:24.858Z,100794.25
2022-12-13T03:30:52.590Z,100798.72
2022-12-13T03:33:20.328Z,100796.03
2022-12-13T03:35:49.733Z,100796.03
2022-12-13T03:38:21.337Z,100798.72
2022-12-13T03:40:51.957Z,100793.38
2022-12-13T03:43:21.575Z,100795.16
2022-12-13T03:45:50.244Z,100794.28
2022-12-13T03:48:21.716Z,100793.38
2022-12-13T03:50:52.936Z,100788.88
2022-12-13T03:53:22.697Z,100793.41
2022-12-13T03:56:01.309Z,100788.94
2022-12-13T03:58:35.728Z,100784.44
2022-12-13T04:01:04.953Z,100788.00
2022-12-13T04:03:32.570Z,100784.44
2022-12-13T04:06:01.744Z,100784.44
2022-12-13T04:08:29.509Z,100780.84
2022-12-13T04:10:57.634Z,100779.06
2022-12-13T04:13:33.373Z,100780.88
2022-12-13T04:16:01.211Z,100782.69
2022-12-13T04:18:29.001Z,100780.06
2022-12-13T04:20:57.444Z,100780.97
2022-12-13T04:23:26.796Z,100785.47
2022-12-13T04:25:54.752Z,100781.06
2022-12-13T04:28:23.214Z,100776.63
2022-12-13T04:30:52.948Z,100772.19
2022-12-13T04:33:21.747Z,100767.75
2022-12-13T04:35:49.434Z,100771.31
2022-12-13T04:38:17.807Z,100776.69
2022-12-13T04:40:46.855Z,100768.63
2022-12-13T04:43:14.483Z,100766.84
2022-12-13T04:45:42.228Z,100766.84
2022-12-13T04:48:10.157Z,100765.03
2022-12-13T04:50:38.079Z,100765.03
2022-12-13T04:53:05.950Z,100770.38
2022-12-13T04:55:33.700Z,100769.50
2022-12-13T04:58:02.723Z,100773.06
2022-12-13T05:00:30.452Z,100773.06
2022-12-13T05:03:00.886Z,100766.78
2022-12-13T05:05:28.542Z,100773.06
2022-12-13T05:07:56.437Z,100765.97
2022-12-13T05:10:33.943Z,100764.16
2022-12-13T05:13:07.193Z,100766.84
2022-12-13T05:15:35.348Z,100752.59
2022-12-13T05:18:10.612Z,100760.63
2022-12-13T05:20:39.250Z,100759.81
2022-12-13T05:23:07.126Z,100756.34
2022-12-13T05:25:37.064Z,100756.41
2022-12-13T05:28:27.090Z,100760.88
2022-12-13T05:30:56.123Z,100752.00
2022-12-13T05:33:24.717Z,100748.44
2022-12-13T05:35:57.702Z,100749.38
2022-12-13T05:38:27.681Z,100742.34
2022-12-13T05:40:55.414Z,100745.97
2022-12-13T05:43:42.344Z,100739.66
2022-12-13T05:46:11.341Z,100743.28
2022-12-13T05:48:39.196Z,100747.75
2022-12-13T05:51:10.126Z,100746.88
2022-12-13T05:53:39.231Z,100745.06
2022-12-13T05:56:07.423Z,100749.50
2022-12-13T05:58:37.252Z,100749.50
2022-12-13T06:01:09.002Z,100750.38
2022-12-13T06:03:37.291Z,100753.00
2022-12-13T06:06:05.593Z,100748.50
2022-12-13T06:08:33.464Z,100749.38
2022-12-13T06:11:09.835Z,100751.13
2022-12-13T06:13:42.086Z,100758.31
2022-12-13T06:16:22.738Z,100750.25
2022-12-13T06:18:55.905Z,100754.69
2022-12-13T06:21:39.148Z,100749.31
2022-12-13T06:24:11.722Z,100755.56
2022-12-13T06:26:39.479Z,100754.63
2022-12-13T06:29:08.631Z,100754.59
2022-12-13T06:31:37.093Z,100755.47
2022-12-13T06:34:14.617Z,100759.94
2022-12-13T06:36:43.276Z,100757.22
2022-12-13T06:39:10.998Z,100759.91
2022-12-13T06:41:38.829Z,100757.22
2022-12-13T06:44:07.894Z,100761.72
2022-12-13T06:46:35.911Z,100753.72
2022-12-13T06:49:08.416Z,100754.59
2022-12-13T06:51:36.142Z,100758.19
2022-12-13T06:54:03.963Z,100766.19
2022-12-13T06:56:31.913Z,100754.59
2022-12-13T06:59:01.971Z,100759.06
2022-12-13T07:01:37.790Z,100752.84
2022-12-13T07:04:28.855Z,100753.72
2022-12-13T07:07:01.578Z,100755.56
2022-12-13T07:09:30.781Z,100756.44
2022-12-13T07:11:58.539Z,100763.56
2022-12-13T07:14:26.333Z,100763.56
2022-12-13T07:17:02.863Z,100760.00
2022-12-13T07:19:34.816Z,100758.19
2022-12-13T07:22:06.011Z,100752.00
2022-12-13T07:24:35.254Z,100753.75
2022-12-13T07:27:03.116Z,100754.63
2022-12-13T07:29:30.880Z,100759.94
2022-12-13T07:32:01.189Z,100758.19
2022-12-13T07:34:30.042Z,100763.56
2022-12-13T07:36:57.716Z,100764.38
2022-12-13T07:39:26.943Z,100772.47
2022-12-13T07:41:55.387Z,100778.72
2022-12-13T07:44:23.089Z,100783.22
2022-12-13T07:46:50.982Z,100777.03
2022-12-13T07:49:20.372Z,100782.38
2022-12-13T07:51:49.089Z,100770.78
2022-12-13T07:54:16.989Z,100769.91
2022-12-13T07:56:45.890Z,100769.94
2022-12-13T07:59:13.774Z,100768.19
2022-12-13T08:01:41.591Z,100774.53
2022-12-13T08:04:10.311Z,100770.09
2022-12-13T08:06:39.765Z,100770.13
2022-12-13T08:09:07.663Z,100771.06
2022-12-13T08:11:35.806Z,100772.88
2022-12-13T08:14:04.894Z,100775.53
2022-12-13T08:16:32.875Z,100784.50
2022-12-13T08:19:04.256Z,100781.88
2022-12-13T08:21:54.090Z,100773.03
2022-12-13T08:24:24.316Z,100775.66
2022-12-13T08:26:52.088Z,100780.22
2022-12-13T08:29:23.349Z,100778.47
2022-12-13T08:32:03.355Z,100786.50
2022-12-13T08:34:31.738Z,100791.00
2022-12-13T08:37:01.457Z,100792.75
2022-12-13T08:39:34.072Z,100783.81
2022-12-13T08:42:15.753Z,100787.34
2022-12-13T08:44:47.149Z,100775.66
2022-12-13T08:47:24.481Z,100776.47
2022-12-13T08:49:53.918Z,100772.88
2022-12-13T08:52:22.055Z,100777.19
2022-12-13T08:54:51.447Z,100773.47
2022-12-13T08:57:19.132Z,100777.78
2022-12-13T08:59:46.886Z,100777.56
2022-12-13T09:02:14.907Z,100780.06
2022-12-13T09:04:43.006Z,100788.88
2022-12-13T09:07:10.827Z,100803.84
2022-12-13T09:09:38.770Z,100804.63
2022-12-13T09:12:10.985Z,100802.63
2022-12-13T09:15:01.150Z,100804.28
2022-12-13T09:17:36.755Z,100794.44
2022-12-13T09:20:09.634Z,100790.63
2022-12-13T09:22:45.098Z,100801.31
2022-12-13T09:25:24.378Z,100802.06
2022-12-13T09:27:54.924Z,100799.31
2022-12-13T09:30:22.672Z,100801.03
2022-12-13T09:32:50.674Z,100797.41
2022-12-13T09:35:18.406Z,100796.38
2022-12-13T09:37:48.939Z,100794.56
2022-12-13T09:40:25.813Z,100792.66
2022-12-13T09:43:21.665Z,100795.28
2022-12-13T09:45:46.423Z,100790.72
2022-12-13T09:48:22.853Z,100787.97
2022-12-13T09:51:18.137Z,100795.03
2022-12-13T09:53:41.078Z,100794.94
2022-12-13T09:56:12.852Z,100799.22
2022-12-13T09:58:41.976Z,100796.50
2022-12-13T10:01:09.823Z,100792.75
2022-12-13T10:03:37.664Z,100787.22
2022-12-13T10:06:13.386Z,100777.19
2022-12-13T10:08:43.001Z,100775.28
2022-12-13T10:11:12.960Z,100765.34
2022-12-13T10:13:44.457Z,100773.25
2022-12-13T10:16:15.185Z,100771.28
2022-12-13T10:18:51.564Z,100763.19
2022-12-13T10:21:23.331Z,100757.72
2022-12-13T10:26:40.512Z,100755.66
2022-12-13T10:29:10.260Z,100750.16
2022-12-13T10:31:43.467Z,100741.09
2022-12-13T10:34:22.450Z,100738.19
2022-12-13T10:36:50.308Z,100732.72
2022-12-13T10:39:19.436Z,100729.91
2022-12-13T10:41:47.667Z,100726.94
2022-12-13T10:44:21.453Z,100720.44
2022-12-13T10:46:54.780Z,100723.81
2022-12-13T10:49:23.667Z,100713.84
2022-12-13T10:51:52.041Z,100702.03
2022-12-13T10:54:26.659Z,100700.06
2022-12-13T10:57:00.053Z,100708.00
2022-12-13T10:59:33.912Z,100695.38
2022-12-13T11:02:03.779Z,100690.72
2022-12-13T11:04:32.579Z,100683.47
2022-12-13T11:07:04.012Z,100687.84
2022-12-13T11:09:38.326Z,100685.00
2022-12-13T11:12:14.397Z,100686.69
2022-12-13T11:14:49.711Z,100680.25
2022-12-13T11:17:18.274Z,100680.88
2022-12-13T11:19:47.718Z,100675.38
2022-12-13T11:22:21.435Z,100677.03
2022-12-13T11:24:51.712Z,100672.41
2022-12-13T11:27:41.007Z,100661.56
2022-12-13T11:30:12.855Z,100644.41
2022-12-13T11:32:49.441Z,100659.47
2022-12-13T11:35:22.496Z,100661.16
2022-12-13T11:37:55.745Z,100652.97
2022-12-13T11:40:25.308Z,100644.91
2022-12-13T11:42:55.000Z,100638.47
2022-12-13T11:45:28.046Z,100642.03
2022-12-13T11:48:02.791Z,100640.16
2022-12-13T11:50:33.069Z,100633.72
2022-12-13T11:53:15.772Z,100632.72
2022-12-13T11:55:45.855Z,100636.16
2022-12-13T11:58:16.608Z,100635.09
2022-12-13T12:00:50.298Z,100635.84
2022-12-13T12:03:19.888Z,100634.91
2022-12-13T12:05:56.033Z,100631.91
2022-12-13T12:08:31.139Z,100630.00
2022-12-13T12:11:03.325Z,100628.97
2022-12-13T12:13:33.558Z,100635.09
2022-12-13T12:16:07.734Z,100636.03
2022-12-13T12:18:35.596Z,100644.78
2022-12-13T12:21:09.267Z,100648.19
2022-12-13T12:23:52.319Z,100638.16
2022-12-13T12:26:27.820Z,100637.19
2022-12-13T12:29:11.952Z,100629.91
2022-12-13T12:31:50.923Z,100623.63
2022-12-13T12:34:27.225Z,100619.88
2022-12-13T12:37:03.368Z,100615.34
2022-12-13T12:39:37.770Z,100618.84
2022-12-13T12:42:21.467Z,100614.22
2022-12-13T12:44:58.980Z,100613.28
2022-12-13T12:47:57.786Z,100612.41
2022-12-13T12:50:26.890Z,100612.34
2022-12-13T12:53:11.348Z,100616.78
2022-12-13T12:55:49.347Z,100603.38
2022-12-13T12:58:25.167Z,100599.91
2022-12-13T13:01:01.568Z,100601.81
2022-12-13T13:03:32.467Z,100599.25
2022-12-13T13:06:03.060Z,100609.22
2022-12-13T13:08:34.540Z,100608.44
2022-12-13T13:11:02.434Z,100605.91
2022-12-13T13:13:37.702Z,100593.47
2022-12-13T13:16:30.033Z,100594.47
2022-12-13T13:18:59.477Z,100591.09
2022-12-13T13:21:42.807Z,100592.91
2022-12-13T13:24:28.297Z,100603.81
2022-12-13T13:26:56.854Z,100592.16
2022-12-13T13:29:32.457Z,100592.28
2022-12-13T13:32:03.090Z,100602.16
2022-12-13T13:34:36.135Z,100597.72
2022-12-13T13:37:05.061Z,100595.97
2022-12-13T13:39:54.007Z,100591.53
2022-12-13T13:42:22.616Z,100576.31
2022-12-13T13:45:01.500Z,100586.38
2022-12-13T13:47:40.068Z,100588.22
2022-12-13T13:50:32.155Z,100588.22
2022-12-13T13:53:10.642Z,100583.84
2022-12-13T13:56:01.600Z,100581.22
2022-12-13T13:58:44.523Z,100573.22
2022-12-13T14:01:34.674Z,100576.84
2022-12-13T14:04:21.401Z,100582.31
2022-12-13T14:07:01.151Z,100583.28
2022-12-13T14:09:44.380Z,100577.97
2022-12-13T14:12:33.276Z,100571.69
2022-12-13T14:15:24.788Z,100565.44
2022-12-13T14:18:13.397Z,100566.47
2022-12-13T14:21:12.873Z,100572.78
2022-12-13T14:23:49.105Z,100563.06
2022-12-13T14:26:23.735Z,100562.25
2022-12-13T14:28:53.821Z,100566.75
2022-12-13T14:31:23.008Z,100571.34
2022-12-13T14:33:54.136Z,100571.44
2022-12-13T14:36:27.614Z,100566.13
2022-12-13T14:39:02.684Z,100561.69
2022-12-13T14:41:31.018Z,100559.94
2022-12-13T14:44:13.720Z,100559.06
2022-12-13T14:46:49.115Z,100564.59
2022-12-13T14:49:17.199Z,100568.22
2022-12-13T14:51:45.544Z,100567.38
2022-12-13T14:54:25.539Z,100561.13
2022-12-13T14:56:57.772Z,100559.31
2022-12-13T14:59:26.077Z,100560.31
2022-12-13T15:01:58.925Z,100551.38
2022-12-13T15:04:29.533Z,100542.44
2022-12-13T15:07:00.425Z,100543.38
2022-12-13T15:09:29.966Z,100542.50
2022-12-13T15:12:15.070Z,100530.00
2022-12-13T15:14:48.258Z,100529.22
2022-12-13T15:17:28.846Z,100525.56
2022-12-13T15:19:59.269Z,100521.16
2022-12-13T15:22:34.976Z,100514.03
2022-12-13T15:25:16.182Z,100517.66
2022-12-13T15:27:52.434Z,100514.97
2022-12-13T15:30:23.137Z,100516.78
2022-12-13T15:33:07.833Z,100506.03
2022-12-13T15:35:37.709Z,100499.78
2022-12-13T15:38:05.512Z,100504.22
2022-12-13T15:40:35.010Z,100492.56
2022-12-13T15:43:03.106Z,100490.84
2022-12-13T15:45:36.837Z,100492.66
2022-12-13T15:48:05.800Z,100493.59
2022-12-13T15:50:35.316Z,100498.03
2022-12-13T15:53:04.061Z,100512.41
2022-12-13T15:55:36.915Z,100500.72
2022-12-13T15:58:05.045Z,100489.09
2022-12-13T16:00:34.385Z,100492.66
2022-12-13T16:03:09.449Z,100486.41
2022-12-13T16:05:39.490Z,100487.28
2022-12-13T16:08:13.582Z,100481.88
2022-12-13T16:10:48.382Z,100472.00
2022-12-13T16:13:26.516Z,100464.00
2022-12-13T16:16:00.446Z,100462.19
2022-12-13T16:18:52.335Z,100460.44
2022-12-13T16:21:20.272Z,100453.25
2022-12-13T16:23:49.260Z,100449.69
2022-12-13T16:26:23.798Z,100455.94
2022-12-13T16:28:51.614Z,100447.88
2022-12-13T16:31:21.324Z,100450.56
2022-12-13T16:33:49.184Z,100450.63
2022-12-13T16:36:16.900Z,100448.81
2022-12-13T16:38:44.685Z,100449.69
2022-12-13T16:41:12.834Z,100451.50
2022-12-13T16:43:49.076Z,100456.00
2022-12-13T16:47:11.875Z,100455.13
2022-12-13T16:49:14.820Z,100460.53
2022-12-13T16:51:48.008Z,100457.13
2022-12-13T16:54:16.544Z,100457.94
2022-12-13T16:56:44.480Z,100463.31
2022-12-13T16:59:15.365Z,100460.63
2022-12-13T17:01:43.658Z,100462.34
2022-12-13T17:04:17.839Z,100457.06
2022-12-13T17:06:49.262Z,100457.94
2022-12-13T17:09:17.359Z,100466.00
2022-12-13T17:11:46.784Z,100463.31
2022-12-13T17:14:16.624Z,100457.94
2022-12-13T17:16:44.714Z,100451.56
2022-12-13T17:19:14.668Z,100452.56
2022-12-13T17:21:42.611Z,100453.44
2022-12-13T17:24:10.319Z,100454.38
2022-12-13T17:26:38.074Z,100458.88
2022-12-13T17:29:05.821Z,100453.56
2022-12-13T17:31:36.245Z,100452.63
2022-12-13T17:34:04.373Z,100441.00
2022-12-13T17:36:35.192Z,100429.38
2022-12-13T17:39:03.203Z,100441.00
2022-12-13T17:41:30.944Z,100444.63
2022-12-13T17:43:59.449Z,100440.13
2022-12-13T17:46:27.309Z,100437.44
2022-12-13T17:48:56.649Z,100441.06
2022-12-13T17:51:24.668Z,100440.13
2022-12-13T17:53:52.781Z,100438.44
2022-12-13T17:56:20.639Z,100441.13
2022-12-13T17:58:48.797Z,100441.13
2022-12-13T18:01:17.621Z,100443.75
2022-12-13T18:03:45.934Z,100447.38
2022-12-13T18:06:15.199Z,100436.69
2022-12-13T18:08:44.445Z,100441.19
2022-12-13T18:14:01.367Z,100444.88
2022-12-13T18:16:37.103Z,100444.88
2022-12-13T18:19:07.125Z,100439.56
2022-12-13T18:21:37.172Z,100444.00
2022-12-13T18:24:05.761Z,100447.56
2022-12-13T18:26:33.753Z,100444.00
2022-12-13T18:29:01.851Z,100443.13
2022-12-13T18:31:29.680Z,100438.69
2022-12-13T18:33:57.921Z,100440.50
2022-12-13T18:36:26.479Z,100434.25
2022-12-13T18:38:56.844Z,100430.63
2022-12-13T18:41:28.043Z,100429.75
2022-12-13T18:43:59.427Z,100415.44
2022-12-13T18:46:28.630Z,100426.19
2022-12-13T18:48:56.774Z,100425.31
2022-12-13T18:51:24.901Z,100417.19
2022-12-13T18:53:53.458Z,100421.69
2022-12-13T18:56:24.068Z,100428.00
2022-12-13T18:58:52.422Z,100428.94
2022-12-13T19:01:20.493Z,100419.06
2022-12-13T19:03:49.207Z,100417.31
2022-12-13T19:06:18.299Z,100416.38
2022-12-13T19:08:48.209Z,100411.00
2022-12-13T19:11:16.403Z,100407.44
2022-12-13T19:13:45.651Z,100414.56
2022-12-13T19:16:14.502Z,100418.13
2022-12-13T19:18:42.786Z,100410.94
2022-12-13T19:21:13.323Z,100408.25
2022-12-13T19:23:41.161Z,100402.84
2022-12-13T19:26:09.510Z,100411.81
2022-12-13T19:28:38.807Z,100402.84
2022-12-13T19:31:08.521Z,100396.53
2022-12-13T19:33:36.408Z,100392.03
2022-12-13T19:36:04.637Z,100392.91
2022-12-13T19:38:32.633Z,100388.31
2022-12-13T19:41:00.374Z,100390.22
2022-12-13T19:43:28.577Z,100387.53
2022-12-13T19:45:56.560Z,100383.97
2022-12-13T19:48:26.720Z,100374.16
2022-12-13T19:50:59.164Z,100365.22
2022-12-13T19:53:27.329Z,100370.59
2022-12-13T19:55:55.574Z,100372.34
2022-12-13T19:58:24.736Z,100369.72
2022-12-13T20:00:52.788Z,100365.22
2022-12-13T20:03:21.630Z,100359.84
2022-12-13T20:05:59.014Z,100355.41
2022-12-13T20:08:28.382Z,100355.34
2022-12-13T20:10:58.562Z,100352.72
2022-12-13T20:13:28.495Z,100352.72
2022-12-13T20:15:56.916Z,100349.16
2022-12-13T20:18:26.546Z,100359.03
2022-12-13T20:21:12.666Z,100346.53
2022-12-13T20:23:42.414Z,100348.38
2022-12-13T20:26:18.074Z,100342.13
2022-12-13T20:28:45.810Z,100335.00
2022-12-13T20:31:14.489Z,100335.00
2022-12-13T20:33:42.274Z,100333.28
2022-12-13T20:36:28.298Z,100326.16
2022-12-13T20:38:56.949Z,100319.03
2022-12-13T20:41:26.096Z,100321.72
2022-12-13T20:43:54.210Z,100318.16
2022-12-13T20:46:22.591Z,100307.41
2022-12-13T20:48:50.880Z,100307.41
2022-12-13T20:51:20.874Z,100303.84
2022-12-13T20:53:50.653Z,100295.78
2022-12-13T20:56:19.425Z,100294.03
2022-12-13T20:58:47.193Z,100289.53
2022-12-13T21:01:15.900Z,100287.81
2022-12-13T21:03:43.794Z,100278.88
2022-12-13T21:06:11.645Z,100273.50
2022-12-13T21:08:54.024Z,100276.25
2022-12-13T21:12:10.371Z,100271.81
2022-12-13T21:14:38.246Z,100273.66
2022-12-13T21:17:09.645Z,100263.84
2022-12-13T21:19:40.214Z,100263.00
2022-12-13T21:22:08.654Z,100257.69
2022-12-13T21:24:37.841Z,100254.06
2022-12-13T21:27:06.329Z,100252.38
2022-12-13T21:29:34.148Z,100247.88
2022-12-13T21:32:02.345Z,100246.13
2022-12-13T21:34:30.276Z,100243.44
2022-12-13T21:36:58.362Z,100237.28
2022-12-13T21:39:28.460Z,100237.38
2022-12-13T21:41:57.948Z,100226.63
2022-12-13T21:44:25.736Z,100224.00
2022-12-13T21:49:41.362Z,100217.78
2022-12-13T21:52:09.092Z,100214.22
2022-12-13T21:54:36.842Z,100216.97
2022-12-13T21:57:23.485Z,100216.03
2022-12-13T21:59:51.214Z,100216.09
2022-12-13T22:02:19.584Z,100204.47
2022-12-13T22:04:48.754Z,100195.47
2022-12-13T22:07:17.513Z,100197.28
2022-12-13T22:09:45.615Z,100188.28
2022-12-13T22:12:20.402Z,100200.84
2022-12-13T22:14:48.261Z,100201.72
2022-12-13T22:17:16.044Z,100202.59
2022-12-13T22:19:43.855Z,100198.09
2022-12-13T22:22:16.456Z,100187.34
2022-12-13T22:24:48.430Z,100178.34
2022-12-13T22:27:23.933Z,100173.91
2022-12-13T22:29:52.120Z,100178.34
2022-12-13T22:32:19.963Z,100171.22
2022-12-13T22:34:47.756Z,100173.03
2022-12-13T22:37:16.111Z,100180.22
2022-12-13T22:39:44.216Z,100174.06
2022-12-13T22:42:11.858Z,100166.88
2022-12-13T22:44:40.970Z,100168.59
2022-12-13T22:47:08.617Z,100169.56
2022-12-13T22:49:38.073Z,100162.34
2022-12-13T22:52:06.034Z,100162.34
2022-12-13T22:54:33.817Z,100167.72
2022-12-13T22:57:02.749Z,100167.72
2022-12-13T22:59:30.702Z,100154.31
2022-12-13T23:02:02.512Z,100158.81
2022-12-13T23:04:33.317Z,100155.25
2022-12-13T23:07:01.156Z,100150.75
2022-12-13T23:09:28.953Z,100149.00
2022-12-13T23:12:14.465Z,100142.69
2022-12-13T23:14:42.252Z,100148.13
2022-12-13T23:17:12.654Z,100146.41
2022-12-13T23:19:50.407Z,100140.19
2022-12-13T23:22:20.782Z,100141.13
2022-12-13T23:24:48.495Z,100146.50
2022-12-13T23:27:16.367Z,100139.31
2022-12-13T23:29:45.065Z,100135.81
2022-12-13T23:32:14.249Z,100133.13
2022-12-13T23:34:42.147Z,100138.50
2022-12-13T23:37:09.943Z,100138.56
2022-12-13T23:39:37.784Z,100137.78
2022-12-13T23:42:05.767Z,100130.59
2022-12-13T23:44:33.490Z,100127.97
2022-12-13T23:47:01.296Z,100127.09
2022-12-13T23:49:30.351Z,100122.59
2022-12-13T23:51:58.134Z,100116.47
2022-12-13T23:54:27.291Z,100113.69
2022-12-13T23:56:55.350Z,100125.41
2022-12-13T23:59:25.832Z,100113.78
